Flight Track Log - Related Links

Times and Time Zones

All times are in EDT time to prevent confusion due to time zone crossing. See the ACA831 flight status page for this flight to view local times or setup timezone preferences in your user account.

Time Position Orientation Groundspeed Altitude Reporting Facility
EDT Latitude Longitude Course Direction KTS MPH feet Rate Location/Type
Sat 04:05:57 PM 45.4590 -73.7490 34° Northeast  Level FlightAware ADS-B
Sat 04:08:58 PM 45.4590 -73.7510 270° West 9 10 53 Level FlightAware ADS-B
Sat 04:09:27 PM 45.4590 -73.7520 270° West 8 9 64 Level FlightAware ADS-B
Sat 04:09:53 PM 45.4600 -73.7500 55° Northeast 10 12 67 Level FlightAware ADS-B
Sat 04:12:00 PM 45.4360 -74.0674 257° West  Level FlightAware Approximate
Sat 04:12:14 PM 45.4620 -73.7480 257° West 11 13  Level FlightAware ADS-B
Sat 04:12:55 PM 45.4640 -73.7480 360° North 8 9 84 Level FlightAware ADS-B
Sat 04:13:09 PM 45.4650 -73.7470 35° Northeast 12 14 90 Level FlightAware ADS-B
Sat 04:13:39 PM 45.4650 -73.7450 90° East 12 14 92 Level FlightAware ADS-B
Sat 04:14:19 PM 45.4650 -73.7420 90° East 11 13 97 Level FlightAware ADS-B
Sat 04:14:50 PM 45.4650 -73.7390 90° East 14 16 104 Level FlightAware ADS-B
Sat 04:16:51 PM 45.4630 -73.7330 257° West 9 10 111 Level FlightAware ADS-B
Sat 04:17:00 PM 45.4337 -74.0811 257° West  Level FlightAware Approximate
Sat 04:17:24 PM 45.4640 -73.7310 55° Northeast 13 15  Level FlightAware ADS-B
Sat 04:18:04 PM 45.4660 -73.7280 46° Northeast 13 15 163 Level FlightAware ADS-B
Sat 04:18:34 PM 45.4670 -73.7260 55° Northeast 14 16 185 Level FlightAware ADS-B
Sat 04:19:39 PM 45.4690 -73.7230 46° Northeast 12 14 206 Level FlightAware ADS-B
Sat 04:20:35 PM 45.4720 -73.7190 43° Northeast 18 21 274 Level FlightAware ADS-B
Sat 04:22:06 PM 45.4730 -73.7130 77° East 11 13 383 Level FlightAware ADS-B
Sat 04:22:31 PM 45.4700 -73.7180 229° Southwest 98 113 1,080 Level FlightAware ADS-B
Sat 04:22:56 PM 45.4580 -73.7330 221° Southwest 162 186 900 3,000 Climbing FlightAware ADS-B
Sat 04:23:31 PM 45.4360 -73.7600 221° Southwest 172 198 3,000 3,158 Climbing FlightAware ADS-B
Sat 04:23:53 PM 45.4270 -73.7710 221° Southwest 172 198 3,900 2,945 Climbing FlightAware ADS-B
Sat 04:24:26 PM 45.4000 -73.8050 221° Southwest 217 250 5,700 3,209 Climbing FlightAware ADS-B
Sat 04:24:36 PM 45.3940 -73.8180 237° Southwest 227 261 6,200 3,810 Climbing FlightAware ADS-B
Sat 04:25:29 PM 45.3900 -73.9080 266° West 271 312 9,700 3,402 Climbing FlightAware ADS-B
Sat 04:26:43 PM 45.3960 -74.0520 273° West 339 390 13,400 3,504 Climbing FlightAware ADS-B
Sat 04:27:22 PM 45.3990 -74.1360 273° West 340 391 16,300 3,319 Climbing FlightAware ADS-B
Sat 04:28:17 PM 45.4040 -74.2380 274° West 367 422 18,600 3,089 Climbing FlightAware ADS-B
Sat 04:29:03 PM 45.4090 -74.3840 273° West 391 450 21,500 2,727 Climbing FlightAware ADS-B
Sat 04:31:13 PM 45.3650 -74.6950 259° West 433 498 26,600 2,387 Climbing FlightAware ADS-B
Sat 04:32:09 PM 45.3333 -74.9000 259° West 440 506 28,900 1,116 Climbing Montreal Center
Sat 04:37:51 PM 45.1660 -75.8330 259° West 458 527 34,000 787 Climbing FlightAware ADS-B
Sat 04:38:38 PM 45.1440 -75.9490 255° West 458 527 34,000  Level FlightAware ADS-B
Sat 04:39:17 PM 45.1260 -76.0450 255° West 458 527 34,000  Level FlightAware ADS-B
Sat 04:39:57 PM 45.0990 -76.2010 256° West 464 534 34,000  Level FlightAware ADS-B
Sat 04:41:49 PM 45.0360 -76.4760 252° West 464 534 34,000  Level FlightAware ADS-B
Sat 04:44:23 PM 44.8410 -76.8610 235° Southwest 474 545 34,000  Level FlightAware ADS-B
Sat 04:45:09 PM 44.7500 -77.0833 235° Southwest 470 541 34,000  Level Montreal Center
Sat 04:46:09 PM 44.6833 -77.2333 238° Southwest 470 541 34,000  Level Montreal Center
Sat 04:47:09 PM 44.6167 -77.4000 241° Southwest 470 541 34,000 -592 Level Montreal Center
Sat 04:52:44 PM 44.2830 -78.2250 241° Southwest 456 525 30,100 -837 Descending FlightAware ADS-B
Sat 04:53:29 PM 44.2350 -78.3380 239° Southwest 447 514 28,700 -3,140 Descending FlightAware ADS-B
Sat 04:54:10 PM 44.1900 -78.4430 239° Southwest 428 493 25,600 -2,710 Descending FlightAware ADS-B
Sat 04:57:37 PM 43.9760 -78.9370 239° Southwest 371 427 17,500 -1,888 Descending FlightAware ADS-B
Sat 04:58:37 PM 43.9250 -79.0470 237° Southwest 309 356 17,200 -800 Descending FlightAware ADS-B
Sat 04:59:22 PM 43.8910 -79.1200 237° Southwest 306 352 16,100 -1,543 Descending FlightAware ADS-B
Sat 04:59:47 PM 43.8750 -79.1640 243° Southwest 302 348 15,400 -1,733 Descending FlightAware ADS-B
Sat 05:00:52 PM 43.8470 -79.2820 252° West 294 338 13,500 -1,911 Descending FlightAware ADS-B
Sat 05:02:02 PM 43.8190 -79.4040 252° West 277 319 11,100 -1,513 Descending FlightAware ADS-B
Sat 05:02:47 PM 43.8020 -79.4750 252° West 245 282 10,600 -1,200 Descending FlightAware ADS-B
Sat 05:03:17 PM 43.7910 -79.5220 252° West 258 297 9,600 -1,700 Descending FlightAware ADS-B
Sat 05:03:47 PM 43.7800 -79.5690 252° West 258 297 8,900 -1,000 Descending FlightAware ADS-B
Sat 05:04:17 PM 43.7690 -79.6150 252° West 243 280 8,600 -655 Descending FlightAware ADS-B
Sat 05:04:42 PM 43.7600 -79.6510 251° West 232 267 8,300 -1,040 Descending FlightAware ADS-B
Sat 05:05:32 PM 43.7430 -79.7190 251° West 231 266 7,300 -1,091 Descending FlightAware ADS-B
Sat 05:06:32 PM 43.7010 -79.7840 228° Southwest 223 257 6,300 -1,040 Descending FlightAware ADS-B
Sat 05:06:47 PM 43.6900 -79.8000 226° Southwest 223 257 6,000 -1,350 Descending FlightAware ADS-B
Sat 05:07:12 PM 43.6720 -79.8280 228° Southwest 222 255 5,400 -1,200 Descending FlightAware ADS-B
Sat 05:07:42 PM 43.6520 -79.8580 227° Southwest 213 245 4,900 -933 Descending FlightAware ADS-B
Sat 05:07:57 PM 43.6420 -79.8720 225° Southwest 210 242 4,700 -1,050 Descending FlightAware ADS-B
Sat 05:08:22 PM 43.6240 -79.8960 224° Southwest 211 243 4,200 -1,200 Descending FlightAware ADS-B
Sat 05:08:37 PM 43.6110 -79.9010 196° South 215 247 3,900 -1,000 Descending FlightAware ADS-B
Sat 05:08:52 PM 43.5970 -79.8950 163° South 211 243 3,700 -667 Descending FlightAware ADS-B
Sat 05:09:22 PM 43.5760 -79.8690 138° Southeast 193 222 3,400 -488 Descending FlightAware ADS-B
Sat 05:11:32 PM 43.6140 -79.7440 67° East 171 197 2,400 -621 Descending FlightAware ADS-B
Sat 05:12:45 PM 43.6520 -79.6890 44° Northeast 137 158 1,300 -667 Descending FlightAware ADS-B
Sat 05:13:29 PM 43.6690 -79.6630 48° Northeast 135 155 1,100 -273 Descending FlightAware ADS-B
Sat 05:15:17 PM 43.6800 -79.6390 58° Northeast 26 30 -611 Descending FlightAware ADS-B
Sat 05:15:43 PM 43.6780 -79.6360 133° Southeast 26 30  Level FlightAware ADS-B

Login

Don't have an account? Register now (free) for customized features, flight alerts, and more!